sensor_id;sensor_type;location;lat;lon;timestamp;P1;durP1;ratioP1;P2;durP2;ratioP2
18082;SDS011;9168;51.194;6.840;2023-01-30T00:00:51;48.97;;;21.90;;
18082;SDS011;9168;51.194;6.840;2023-01-30T00:03:20;46.87;;;22.03;;
18082;SDS011;9168;51.194;6.840;2023-01-30T00:05:48;44.60;;;21.60;;
18082;SDS011;9168;51.194;6.840;2023-01-30T00:08:15;44.90;;;22.07;;
18082;SDS011;9168;51.194;6.840;2023-01-30T00:10:43;47.57;;;20.67;;
18082;SDS011;9168;51.194;6.840;2023-01-30T00:13:10;39.03;;;20.30;;
18082;SDS011;9168;51.194;6.840;2023-01-30T00:15:38;47.37;;;21.97;;
18082;SDS011;9168;51.194;6.840;2023-01-30T00:18:05;47.27;;;22.83;;
18082;SDS011;9168;51.194;6.840;2023-01-30T00:20:33;46.83;;;20.40;;
18082;SDS011;9168;51.194;6.840;2023-01-30T00:23:01;47.93;;;22.57;;
18082;SDS011;9168;51.194;6.840;2023-01-30T00:25:28;45.43;;;21.20;;
18082;SDS011;9168;51.194;6.840;2023-01-30T00:27:57;47.07;;;21.47;;
18082;SDS011;9168;51.194;6.840;2023-01-30T00:30:24;43.73;;;21.53;;
18082;SDS011;9168;51.194;6.840;2023-01-30T00:32:52;48.23;;;22.43;;
18082;SDS011;9168;51.194;6.840;2023-01-30T00:35:20;47.53;;;21.20;;
18082;SDS011;9168;51.194;6.840;2023-01-30T00:37:53;51.63;;;22.47;;
18082;SDS011;9168;51.194;6.840;2023-01-30T00:40:22;44.43;;;20.97;;
18082;SDS011;9168;51.194;6.840;2023-01-30T00:42:49;45.43;;;22.17;;
18082;SDS011;9168;51.194;6.840;2023-01-30T00:45:34;41.17;;;21.20;;
18082;SDS011;9168;51.194;6.840;2023-01-30T00:48:20;45.53;;;22.50;;
18082;SDS011;9168;51.194;6.840;2023-01-30T00:50:47;45.40;;;22.50;;
18082;SDS011;9168;51.194;6.840;2023-01-30T00:53:15;50.33;;;23.07;;
18082;SDS011;9168;51.194;6.840;2023-01-30T00:55:42;46.50;;;22.80;;
18082;SDS011;9168;51.194;6.840;2023-01-30T00:58:09;48.60;;;22.50;;
18082;SDS011;9168;51.194;6.840;2023-01-30T01:00:37;47.60;;;22.63;;
18082;SDS011;9168;51.194;6.840;2023-01-30T01:03:04;44.70;;;21.90;;
18082;SDS011;9168;51.194;6.840;2023-01-30T01:05:31;46.67;;;23.17;;
18082;SDS011;9168;51.194;6.840;2023-01-30T01:07:57;52.43;;;22.67;;
18082;SDS011;9168;51.194;6.840;2023-01-30T01:10:26;42.97;;;20.47;;
18082;SDS011;9168;51.194;6.840;2023-01-30T01:12:53;49.20;;;22.87;;
18082;SDS011;9168;51.194;6.840;2023-01-30T01:15:20;49.47;;;23.33;;
18082;SDS011;9168;51.194;6.840;2023-01-30T01:17:48;46.13;;;22.43;;
18082;SDS011;9168;51.194;6.840;2023-01-30T01:20:15;49.03;;;21.80;;
18082;SDS011;9168;51.194;6.840;2023-01-30T01:22:43;45.50;;;22.80;;
18082;SDS011;9168;51.194;6.840;2023-01-30T01:25:13;51.90;;;22.10;;
18082;SDS011;9168;51.194;6.840;2023-01-30T01:27:42;45.27;;;21.40;;
18082;SDS011;9168;51.194;6.840;2023-01-30T01:30:09;47.60;;;21.83;;
18082;SDS011;9168;51.194;6.840;2023-01-30T01:32:37;54.77;;;22.47;;
18082;SDS011;9168;51.194;6.840;2023-01-30T01:35:04;46.03;;;22.37;;
18082;SDS011;9168;51.194;6.840;2023-01-30T01:37:31;44.63;;;22.53;;
18082;SDS011;9168;51.194;6.840;2023-01-30T01:39:58;54.60;;;23.23;;
18082;SDS011;9168;51.194;6.840;2023-01-30T01:42:44;50.47;;;24.10;;
18082;SDS011;9168;51.194;6.840;2023-01-30T01:45:15;44.93;;;21.83;;
18082;SDS011;9168;51.194;6.840;2023-01-30T01:47:45;45.30;;;22.87;;
18082;SDS011;9168;51.194;6.840;2023-01-30T01:50:17;44.33;;;21.77;;
18082;SDS011;9168;51.194;6.840;2023-01-30T01:52:48;48.70;;;22.33;;
18082;SDS011;9168;51.194;6.840;2023-01-30T01:55:19;49.40;;;20.77;;
18082;SDS011;9168;51.194;6.840;2023-01-30T01:57:51;46.33;;;22.40;;
18082;SDS011;9168;51.194;6.840;2023-01-30T02:00:20;43.13;;;21.30;;
18082;SDS011;9168;51.194;6.840;2023-01-30T02:02:49;42.63;;;22.23;;
18082;SDS011;9168;51.194;6.840;2023-01-30T02:05:21;40.27;;;20.90;;
18082;SDS011;9168;51.194;6.840;2023-01-30T02:07:50;45.70;;;21.53;;
18082;SDS011;9168;51.194;6.840;2023-01-30T02:10:21;45.50;;;21.77;;
18082;SDS011;9168;51.194;6.840;2023-01-30T02:12:52;56.20;;;21.83;;
18082;SDS011;9168;51.194;6.840;2023-01-30T02:15:18;44.10;;;21.90;;
18082;SDS011;9168;51.194;6.840;2023-01-30T02:17:45;40.77;;;21.17;;
18082;SDS011;9168;51.194;6.840;2023-01-30T02:20:15;48.93;;;21.23;;
18082;SDS011;9168;51.194;6.840;2023-01-30T02:23:00;43.33;;;21.27;;
18082;SDS011;9168;51.194;6.840;2023-01-30T02:26:00;46.00;;;21.00;;
18082;SDS011;9168;51.194;6.840;2023-01-30T02:28:50;42.23;;;20.53;;
18082;SDS011;9168;51.194;6.840;2023-01-30T02:31:38;44.13;;;21.40;;
18082;SDS011;9168;51.194;6.840;2023-01-30T02:34:22;48.97;;;21.70;;
18082;SDS011;9168;51.194;6.840;2023-01-30T02:37:00;41.83;;;21.37;;
18082;SDS011;9168;51.194;6.840;2023-01-30T02:39:43;46.47;;;21.27;;
18082;SDS011;9168;51.194;6.840;2023-01-30T02:42:28;48.10;;;21.23;;
18082;SDS011;9168;51.194;6.840;2023-01-30T02:45:04;43.77;;;22.03;;
18082;SDS011;9168;51.194;6.840;2023-01-30T02:47:40;47.17;;;22.10;;
18082;SDS011;9168;51.194;6.840;2023-01-30T02:50:11;43.67;;;21.60;;
18082;SDS011;9168;51.194;6.840;2023-01-30T02:52:44;47.40;;;20.70;;
18082;SDS011;9168;51.194;6.840;2023-01-30T02:55:17;42.57;;;20.90;;
18082;SDS011;9168;51.194;6.840;2023-01-30T02:57:45;39.03;;;20.03;;
18082;SDS011;9168;51.194;6.840;2023-01-30T03:00:12;42.20;;;20.83;;
18082;SDS011;9168;51.194;6.840;2023-01-30T03:02:56;42.33;;;20.13;;
18082;SDS011;9168;51.194;6.840;2023-01-30T03:06:06;42.97;;;20.10;;
18082;SDS011;9168;51.194;6.840;2023-01-30T03:08:47;42.33;;;20.30;;
18082;SDS011;9168;51.194;6.840;2023-01-30T03:11:27;42.27;;;20.17;;
18082;SDS011;9168;51.194;6.840;2023-01-30T03:14:04;41.33;;;20.40;;
18082;SDS011;9168;51.194;6.840;2023-01-30T03:16:39;39.67;;;19.67;;
18082;SDS011;9168;51.194;6.840;2023-01-30T03:19:10;42.90;;;21.73;;
18082;SDS011;9168;51.194;6.840;2023-01-30T03:21:41;43.27;;;20.03;;
18082;SDS011;9168;51.194;6.840;2023-01-30T03:24:09;36.90;;;18.87;;
18082;SDS011;9168;51.194;6.840;2023-01-30T03:26:36;44.00;;;20.20;;
18082;SDS011;9168;51.194;6.840;2023-01-30T03:29:06;49.03;;;19.90;;
18082;SDS011;9168;51.194;6.840;2023-01-30T03:31:33;45.60;;;20.53;;
18082;SDS011;9168;51.194;6.840;2023-01-30T03:34:00;48.77;;;20.90;;
18082;SDS011;9168;51.194;6.840;2023-01-30T03:36:28;45.33;;;20.97;;
18082;SDS011;9168;51.194;6.840;2023-01-30T03:38:55;38.87;;;20.40;;
18082;SDS011;9168;51.194;6.840;2023-01-30T03:41:22;37.50;;;20.03;;
18082;SDS011;9168;51.194;6.840;2023-01-30T03:43:49;40.73;;;20.40;;
18082;SDS011;9168;51.194;6.840;2023-01-30T03:46:16;46.57;;;21.53;;
18082;SDS011;9168;51.194;6.840;2023-01-30T03:48:43;46.87;;;20.87;;
18082;SDS011;9168;51.194;6.840;2023-01-30T03:51:10;48.63;;;21.07;;
18082;SDS011;9168;51.194;6.840;2023-01-30T03:53:38;43.17;;;20.40;;
18082;SDS011;9168;51.194;6.840;2023-01-30T03:56:05;46.53;;;21.60;;
18082;SDS011;9168;51.194;6.840;2023-01-30T03:58:32;46.92;;;21.60;;
18082;SDS011;9168;51.194;6.840;2023-01-30T04:00:58;43.43;;;20.83;;
18082;SDS011;9168;51.194;6.840;2023-01-30T04:03:25;43.27;;;21.13;;
18082;SDS011;9168;51.194;6.840;2023-01-30T04:05:52;42.83;;;20.37;;
18082;SDS011;9168;51.194;6.840;2023-01-30T04:08:19;43.43;;;21.00;;
18082;SDS011;9168;51.194;6.840;2023-01-30T04:10:47;45.10;;;21.00;;
18082;SDS011;9168;51.194;6.840;2023-01-30T04:13:14;42.70;;;21.83;;
18082;SDS011;9168;51.194;6.840;2023-01-30T04:15:41;47.07;;;21.50;;
18082;SDS011;9168;51.194;6.840;2023-01-30T04:18:08;49.23;;;21.80;;
18082;SDS011;9168;51.194;6.840;2023-01-30T04:20:35;47.20;;;23.37;;
18082;SDS011;9168;51.194;6.840;2023-01-30T04:23:02;42.63;;;22.07;;
18082;SDS011;9168;51.194;6.840;2023-01-30T04:25:29;42.03;;;21.67;;
18082;SDS011;9168;51.194;6.840;2023-01-30T04:27:58;44.80;;;21.45;;
18082;SDS011;9168;51.194;6.840;2023-01-30T04:30:24;45.00;;;21.20;;
18082;SDS011;9168;51.194;6.840;2023-01-30T04:32:51;49.43;;;21.63;;
18082;SDS011;9168;51.194;6.840;2023-01-30T04:35:18;45.85;;;21.90;;
18082;SDS011;9168;51.194;6.840;2023-01-30T04:37:45;43.78;;;22.30;;
18082;SDS011;9168;51.194;6.840;2023-01-30T04:40:12;41.22;;;20.88;;
18082;SDS011;9168;51.194;6.840;2023-01-30T04:42:39;39.53;;;19.93;;
18082;SDS011;9168;51.194;6.840;2023-01-30T04:45:08;46.47;;;21.07;;
18082;SDS011;9168;51.194;6.840;2023-01-30T04:47:35;40.77;;;22.37;;
18082;SDS011;9168;51.194;6.840;2023-01-30T04:50:02;46.03;;;22.10;;
18082;SDS011;9168;51.194;6.840;2023-01-30T04:52:29;44.53;;;22.57;;
18082;SDS011;9168;51.194;6.840;2023-01-30T04:54:56;46.00;;;22.52;;
18082;SDS011;9168;51.194;6.840;2023-01-30T04:57:23;45.87;;;22.37;;
18082;SDS011;9168;51.194;6.840;2023-01-30T04:59:50;44.30;;;22.07;;
18082;SDS011;9168;51.194;6.840;2023-01-30T05:02:18;47.87;;;23.23;;
18082;SDS011;9168;51.194;6.840;2023-01-30T05:04:47;48.80;;;22.20;;
18082;SDS011;9168;51.194;6.840;2023-01-30T05:07:14;40.38;;;20.95;;
18082;SDS011;9168;51.194;6.840;2023-01-30T05:09:41;49.93;;;22.40;;
18082;SDS011;9168;51.194;6.840;2023-01-30T05:12:08;46.30;;;22.17;;
18082;SDS011;9168;51.194;6.840;2023-01-30T05:14:35;54.40;;;21.73;;
18082;SDS011;9168;51.194;6.840;2023-01-30T05:17:05;40.80;;;21.97;;
18082;SDS011;9168;51.194;6.840;2023-01-30T05:19:33;45.77;;;21.63;;
18082;SDS011;9168;51.194;6.840;2023-01-30T05:22:00;45.23;;;22.30;;
18082;SDS011;9168;51.194;6.840;2023-01-30T05:24:27;41.73;;;21.93;;
18082;SDS011;9168;51.194;6.840;2023-01-30T05:26:54;43.87;;;20.13;;
18082;SDS011;9168;51.194;6.840;2023-01-30T05:29:21;42.67;;;20.70;;
18082;SDS011;9168;51.194;6.840;2023-01-30T05:31:48;42.87;;;20.40;;
18082;SDS011;9168;51.194;6.840;2023-01-30T05:34:15;42.93;;;20.60;;
18082;SDS011;9168;51.194;6.840;2023-01-30T05:36:43;37.13;;;19.67;;
18082;SDS011;9168;51.194;6.840;2023-01-30T05:39:10;35.43;;;19.37;;
18082;SDS011;9168;51.194;6.840;2023-01-30T05:41:37;40.17;;;19.23;;
18082;SDS011;9168;51.194;6.840;2023-01-30T05:44:04;38.83;;;19.00;;
18082;SDS011;9168;51.194;6.840;2023-01-30T05:46:31;39.33;;;19.67;;
18082;SDS011;9168;51.194;6.840;2023-01-30T05:48:58;35.95;;;19.02;;
18082;SDS011;9168;51.194;6.840;2023-01-30T05:51:26;43.97;;;19.23;;
18082;SDS011;9168;51.194;6.840;2023-01-30T05:53:54;37.40;;;18.83;;
18082;SDS011;9168;51.194;6.840;2023-01-30T05:56:21;33.67;;;18.87;;
18082;SDS011;9168;51.194;6.840;2023-01-30T05:58:49;34.60;;;17.95;;
18082;SDS011;9168;51.194;6.840;2023-01-30T06:01:16;35.75;;;18.30;;
18082;SDS011;9168;51.194;6.840;2023-01-30T06:03:43;41.13;;;18.63;;
18082;SDS011;9168;51.194;6.840;2023-01-30T06:06:10;38.80;;;18.67;;
18082;SDS011;9168;51.194;6.840;2023-01-30T06:08:38;40.90;;;20.13;;
18082;SDS011;9168;51.194;6.840;2023-01-30T06:11:06;39.70;;;19.40;;
18082;SDS011;9168;51.194;6.840;2023-01-30T06:13:35;32.40;;;17.73;;
18082;SDS011;9168;51.194;6.840;2023-01-30T06:16:02;38.07;;;19.73;;
18082;SDS011;9168;51.194;6.840;2023-01-30T06:18:29;36.17;;;18.02;;
18082;SDS011;9168;51.194;6.840;2023-01-30T06:20:56;42.13;;;19.83;;
18082;SDS011;9168;51.194;6.840;2023-01-30T06:23:23;41.20;;;18.97;;
18082;SDS011;9168;51.194;6.840;2023-01-30T06:25:50;38.27;;;19.80;;
18082;SDS011;9168;51.194;6.840;2023-01-30T06:28:20;38.55;;;20.08;;
18082;SDS011;9168;51.194;6.840;2023-01-30T06:30:48;35.13;;;19.00;;
18082;SDS011;9168;51.194;6.840;2023-01-30T06:33:15;36.10;;;18.93;;
18082;SDS011;9168;51.194;6.840;2023-01-30T06:35:42;36.43;;;18.70;;
18082;SDS011;9168;51.194;6.840;2023-01-30T06:38:10;38.60;;;19.27;;
18082;SDS011;9168;51.194;6.840;2023-01-30T06:40:38;39.10;;;19.20;;
18082;SDS011;9168;51.194;6.840;2023-01-30T06:43:05;34.25;;;18.48;;
18082;SDS011;9168;51.194;6.840;2023-01-30T06:45:34;39.57;;;18.67;;
18082;SDS011;9168;51.194;6.840;2023-01-30T06:48:01;39.47;;;19.97;;
18082;SDS011;9168;51.194;6.840;2023-01-30T06:50:28;34.15;;;18.67;;
18082;SDS011;9168;51.194;6.840;2023-01-30T06:52:56;33.63;;;18.10;;
18082;SDS011;9168;51.194;6.840;2023-01-30T06:55:24;35.47;;;17.75;;
18082;SDS011;9168;51.194;6.840;2023-01-30T06:57:59;34.57;;;18.50;;
18082;SDS011;9168;51.194;6.840;2023-01-30T07:00:27;31.08;;;16.75;;
18082;SDS011;9168;51.194;6.840;2023-01-30T07:05:50;34.97;;;16.77;;
18082;SDS011;9168;51.194;6.840;2023-01-30T07:08:17;32.50;;;16.58;;
18082;SDS011;9168;51.194;6.840;2023-01-30T07:10:44;33.20;;;15.95;;
18082;SDS011;9168;51.194;6.840;2023-01-30T07:13:11;34.67;;;16.00;;
18082;SDS011;9168;51.194;6.840;2023-01-30T07:15:38;31.77;;;16.37;;
18082;SDS011;9168;51.194;6.840;2023-01-30T07:18:05;36.43;;;16.83;;
18082;SDS011;9168;51.194;6.840;2023-01-30T07:20:32;31.40;;;17.00;;
18082;SDS011;9168;51.194;6.840;2023-01-30T07:23:00;31.63;;;16.27;;
18082;SDS011;9168;51.194;6.840;2023-01-30T07:25:27;28.98;;;16.40;;
18082;SDS011;9168;51.194;6.840;2023-01-30T07:27:55;35.37;;;16.83;;
18082;SDS011;9168;51.194;6.840;2023-01-30T07:30:23;35.25;;;18.42;;
18082;SDS011;9168;51.194;6.840;2023-01-30T07:32:51;29.83;;;15.90;;
18082;SDS011;9168;51.194;6.840;2023-01-30T07:35:19;35.55;;;16.50;;
18082;SDS011;9168;51.194;6.840;2023-01-30T07:37:47;31.27;;;15.15;;
18082;SDS011;9168;51.194;6.840;2023-01-30T07:40:16;33.90;;;15.35;;
18082;SDS011;9168;51.194;6.840;2023-01-30T07:42:50;27.23;;;14.52;;
18082;SDS011;9168;51.194;6.840;2023-01-30T07:45:21;30.40;;;15.17;;
18082;SDS011;9168;51.194;6.840;2023-01-30T07:47:47;26.63;;;14.85;;
18082;SDS011;9168;51.194;6.840;2023-01-30T07:50:15;26.35;;;15.05;;
18082;SDS011;9168;51.194;6.840;2023-01-30T07:52:42;28.17;;;14.60;;
18082;SDS011;9168;51.194;6.840;2023-01-30T07:55:09;28.10;;;14.60;;
18082;SDS011;9168;51.194;6.840;2023-01-30T07:57:37;34.88;;;15.35;;
18082;SDS011;9168;51.194;6.840;2023-01-30T08:00:05;28.85;;;14.85;;
18082;SDS011;9168;51.194;6.840;2023-01-30T08:02:34;32.40;;;14.50;;
18082;SDS011;9168;51.194;6.840;2023-01-30T08:05:01;30.13;;;13.73;;
18082;SDS011;9168;51.194;6.840;2023-01-30T08:07:28;31.77;;;15.77;;
18082;SDS011;9168;51.194;6.840;2023-01-30T08:09:55;29.92;;;15.50;;
18082;SDS011;9168;51.194;6.840;2023-01-30T08:12:22;33.85;;;15.75;;
18082;SDS011;9168;51.194;6.840;2023-01-30T08:14:50;38.90;;;16.50;;
18082;SDS011;9168;51.194;6.840;2023-01-30T08:17:17;32.80;;;16.90;;
18082;SDS011;9168;51.194;6.840;2023-01-30T08:19:44;27.67;;;14.82;;
18082;SDS011;9168;51.194;6.840;2023-01-30T08:22:11;34.40;;;17.27;;
18082;SDS011;9168;51.194;6.840;2023-01-30T08:24:38;40.97;;;16.80;;
18082;SDS011;9168;51.194;6.840;2023-01-30T08:27:05;41.15;;;17.17;;
18082;SDS011;9168;51.194;6.840;2023-01-30T08:29:32;33.13;;;16.87;;
18082;SDS011;9168;51.194;6.840;2023-01-30T08:32:01;39.57;;;18.13;;
18082;SDS011;9168;51.194;6.840;2023-01-30T08:34:27;32.20;;;16.95;;
18082;SDS011;9168;51.194;6.840;2023-01-30T08:36:55;39.92;;;16.83;;
18082;SDS011;9168;51.194;6.840;2023-01-30T08:39:22;33.88;;;16.92;;
18082;SDS011;9168;51.194;6.840;2023-01-30T08:41:49;33.87;;;15.93;;
18082;SDS011;9168;51.194;6.840;2023-01-30T08:44:16;48.58;;;18.80;;
18082;SDS011;9168;51.194;6.840;2023-01-30T08:46:43;40.43;;;16.80;;
18082;SDS011;9168;51.194;6.840;2023-01-30T08:49:11;37.50;;;15.60;;
18082;SDS011;9168;51.194;6.840;2023-01-30T08:51:38;38.57;;;15.37;;
18082;SDS011;9168;51.194;6.840;2023-01-30T08:54:05;35.17;;;14.50;;
18082;SDS011;9168;51.194;6.840;2023-01-30T08:56:32;35.03;;;14.80;;
18082;SDS011;9168;51.194;6.840;2023-01-30T08:58:59;33.25;;;14.15;;
18082;SDS011;9168;51.194;6.840;2023-01-30T09:01:26;29.70;;;12.97;;
18082;SDS011;9168;51.194;6.840;2023-01-30T09:03:53;27.70;;;12.32;;
18082;SDS011;9168;51.194;6.840;2023-01-30T09:06:21;37.10;;;11.33;;
18082;SDS011;9168;51.194;6.840;2023-01-30T09:08:48;28.45;;;11.18;;
18082;SDS011;9168;51.194;6.840;2023-01-30T09:11:16;40.92;;;11.48;;
18082;SDS011;9168;51.194;6.840;2023-01-30T09:13:43;27.73;;;11.30;;
18082;SDS011;9168;51.194;6.840;2023-01-30T09:16:10;35.80;;;11.10;;
18082;SDS011;9168;51.194;6.840;2023-01-30T09:18:37;31.30;;;10.35;;
18082;SDS011;9168;51.194;6.840;2023-01-30T09:21:05;25.52;;;9.45;;
18082;SDS011;9168;51.194;6.840;2023-01-30T09:23:33;27.27;;;8.75;;
18082;SDS011;9168;51.194;6.840;2023-01-30T09:26:01;31.23;;;8.00;;
18082;SDS011;9168;51.194;6.840;2023-01-30T09:28:27;28.45;;;7.22;;
18082;SDS011;9168;51.194;6.840;2023-01-30T09:30:55;25.73;;;7.05;;
18082;SDS011;9168;51.194;6.840;2023-01-30T09:33:22;27.25;;;6.90;;
18082;SDS011;9168;51.194;6.840;2023-01-30T09:35:50;33.60;;;8.25;;
18082;SDS011;9168;51.194;6.840;2023-01-30T09:38:17;25.97;;;7.00;;
18082;SDS011;9168;51.194;6.840;2023-01-30T09:40:47;36.15;;;7.30;;
18082;SDS011;9168;51.194;6.840;2023-01-30T09:43:28;30.77;;;8.05;;
18082;SDS011;9168;51.194;6.840;2023-01-30T09:46:10;24.52;;;5.72;;
18082;SDS011;9168;51.194;6.840;2023-01-30T09:48:49;27.33;;;6.20;;
18082;SDS011;9168;51.194;6.840;2023-01-30T09:51:30;21.58;;;4.85;;
18082;SDS011;9168;51.194;6.840;2023-01-30T09:54:21;23.75;;;4.50;;
18082;SDS011;9168;51.194;6.840;2023-01-30T09:56:55;35.50;;;4.35;;
18082;SDS011;9168;51.194;6.840;2023-01-30T09:59:28;26.80;;;4.30;;
18082;SDS011;9168;51.194;6.840;2023-01-30T10:02:00;26.85;;;4.78;;
18082;SDS011;9168;51.194;6.840;2023-01-30T10:04:42;35.28;;;5.13;;
18082;SDS011;9168;51.194;6.840;2023-01-30T10:07:13;24.73;;;4.65;;
18082;SDS011;9168;51.194;6.840;2023-01-30T10:09:49;22.88;;;3.55;;
18082;SDS011;9168;51.194;6.840;2023-01-30T10:12:29;22.38;;;4.40;;
18082;SDS011;9168;51.194;6.840;2023-01-30T10:15:12;23.63;;;3.55;;
18082;SDS011;9168;51.194;6.840;2023-01-30T10:17:54;28.75;;;4.47;;
18082;SDS011;9168;51.194;6.840;2023-01-30T10:20:37;32.40;;;4.20;;
18082;SDS011;9168;51.194;6.840;2023-01-30T10:23:16;21.80;;;4.20;;
18082;SDS011;9168;51.194;6.840;2023-01-30T10:26:06;32.30;;;4.13;;
18082;SDS011;9168;51.194;6.840;2023-01-30T10:28:38;28.98;;;4.32;;
18082;SDS011;9168;51.194;6.840;2023-01-30T10:31:10;29.73;;;5.10;;
18082;SDS011;9168;51.194;6.840;2023-01-30T10:33:40;29.13;;;4.32;;
18082;SDS011;9168;51.194;6.840;2023-01-30T10:36:11;33.17;;;5.18;;
18082;SDS011;9168;51.194;6.840;2023-01-30T10:38:42;32.03;;;4.53;;
18082;SDS011;9168;51.194;6.840;2023-01-30T10:41:16;24.92;;;4.22;;
18082;SDS011;9168;51.194;6.840;2023-01-30T10:43:51;28.33;;;4.43;;
18082;SDS011;9168;51.194;6.840;2023-01-30T10:46:27;23.50;;;3.50;;
18082;SDS011;9168;51.194;6.840;2023-01-30T10:49:10;26.77;;;4.65;;
18082;SDS011;9168;51.194;6.840;2023-01-30T10:51:44;25.63;;;4.35;;
18082;SDS011;9168;51.194;6.840;2023-01-30T10:54:19;20.45;;;3.25;;
18082;SDS011;9168;51.194;6.840;2023-01-30T10:56:51;31.58;;;4.05;;
18082;SDS011;9168;51.194;6.840;2023-01-30T10:59:27;24.67;;;3.33;;
18082;SDS011;9168;51.194;6.840;2023-01-30T11:02:01;24.20;;;4.13;;
18082;SDS011;9168;51.194;6.840;2023-01-30T11:04:39;22.23;;;3.42;;
18082;SDS011;9168;51.194;6.840;2023-01-30T11:07:11;29.95;;;3.83;;
18082;SDS011;9168;51.194;6.840;2023-01-30T11:09:40;28.50;;;3.90;;
18082;SDS011;9168;51.194;6.840;2023-01-30T11:12:08;25.63;;;3.75;;
18082;SDS011;9168;51.194;6.840;2023-01-30T11:14:50;20.73;;;3.20;;
18082;SDS011;9168;51.194;6.840;2023-01-30T11:17:18;28.00;;;4.45;;
18082;SDS011;9168;51.194;6.840;2023-01-30T11:19:52;28.27;;;4.25;;
18082;SDS011;9168;51.194;6.840;2023-01-30T11:22:20;26.70;;;3.63;;
18082;SDS011;9168;51.194;6.840;2023-01-30T11:24:58;27.05;;;3.35;;
18082;SDS011;9168;51.194;6.840;2023-01-30T11:27:27;24.47;;;3.30;;
18082;SDS011;9168;51.194;6.840;2023-01-30T11:30:03;23.30;;;4.03;;
18082;SDS011;9168;51.194;6.840;2023-01-30T11:32:31;27.60;;;4.57;;
18082;SDS011;9168;51.194;6.840;2023-01-30T11:35:03;24.50;;;3.13;;
18082;SDS011;9168;51.194;6.840;2023-01-30T11:37:52;31.55;;;4.15;;
18082;SDS011;9168;51.194;6.840;2023-01-30T11:40:22;29.33;;;3.72;;
18082;SDS011;9168;51.194;6.840;2023-01-30T11:42:57;30.27;;;3.80;;
18082;SDS011;9168;51.194;6.840;2023-01-30T11:45:28;33.50;;;3.58;;
18082;SDS011;9168;51.194;6.840;2023-01-30T11:48:00;29.70;;;3.47;;
18082;SDS011;9168;51.194;6.840;2023-01-30T11:50:32;24.83;;;3.20;;
18082;SDS011;9168;51.194;6.840;2023-01-30T11:53:04;30.58;;;3.63;;
18082;SDS011;9168;51.194;6.840;2023-01-30T11:55:45;27.73;;;4.28;;
18082;SDS011;9168;51.194;6.840;2023-01-30T11:58:12;23.90;;;3.50;;
18082;SDS011;9168;51.194;6.840;2023-01-30T12:00:42;28.10;;;3.65;;
18082;SDS011;9168;51.194;6.840;2023-01-30T12:03:14;23.73;;;3.90;;
18082;SDS011;9168;51.194;6.840;2023-01-30T12:05:43;25.98;;;2.83;;
18082;SDS011;9168;51.194;6.840;2023-01-30T12:08:20;19.83;;;2.60;;
18082;SDS011;9168;51.194;6.840;2023-01-30T12:10:50;24.27;;;3.30;;
18082;SDS011;9168;51.194;6.840;2023-01-30T12:13:20;20.58;;;3.20;;
18082;SDS011;9168;51.194;6.840;2023-01-30T12:15:56;30.67;;;3.35;;
18082;SDS011;9168;51.194;6.840;2023-01-30T12:18:36;21.67;;;3.33;;
18082;SDS011;9168;51.194;6.840;2023-01-30T12:21:08;30.83;;;4.13;;
18082;SDS011;9168;51.194;6.840;2023-01-30T12:23:41;30.45;;;3.40;;
18082;SDS011;9168;51.194;6.840;2023-01-30T12:26:11;23.30;;;2.97;;
18082;SDS011;9168;51.194;6.840;2023-01-30T12:28:43;25.25;;;3.20;;
18082;SDS011;9168;51.194;6.840;2023-01-30T12:31:18;30.45;;;3.75;;
18082;SDS011;9168;51.194;6.840;2023-01-30T12:33:48;22.10;;;3.00;;
18082;SDS011;9168;51.194;6.840;2023-01-30T12:36:21;19.63;;;3.35;;
18082;SDS011;9168;51.194;6.840;2023-01-30T12:38:55;23.35;;;2.97;;
18082;SDS011;9168;51.194;6.840;2023-01-30T12:41:40;20.02;;;2.47;;
18082;SDS011;9168;51.194;6.840;2023-01-30T12:44:20;24.35;;;3.20;;
18082;SDS011;9168;51.194;6.840;2023-01-30T12:47:10;15.68;;;3.03;;
18082;SDS011;9168;51.194;6.840;2023-01-30T12:49:56;18.10;;;3.03;;
18082;SDS011;9168;51.194;6.840;2023-01-30T12:52:39;29.67;;;4.18;;
18082;SDS011;9168;51.194;6.840;2023-01-30T12:55:30;28.52;;;4.00;;
18082;SDS011;9168;51.194;6.840;2023-01-30T12:58:05;26.65;;;3.55;;
18082;SDS011;9168;51.194;6.840;2023-01-30T13:00:43;22.85;;;3.53;;
18082;SDS011;9168;51.194;6.840;2023-01-30T13:03:29;21.08;;;2.70;;
18082;SDS011;9168;51.194;6.840;2023-01-30T13:06:06;23.45;;;3.28;;
18082;SDS011;9168;51.194;6.840;2023-01-30T13:08:51;21.30;;;3.50;;
18082;SDS011;9168;51.194;6.840;2023-01-30T13:11:32;28.35;;;3.22;;
18082;SDS011;9168;51.194;6.840;2023-01-30T13:14:13;19.50;;;3.30;;
18082;SDS011;9168;51.194;6.840;2023-01-30T13:16:53;19.38;;;2.42;;
18082;SDS011;9168;51.194;6.840;2023-01-30T13:19:34;23.02;;;3.80;;
18082;SDS011;9168;51.194;6.840;2023-01-30T13:22:10;16.48;;;2.88;;
18082;SDS011;9168;51.194;6.840;2023-01-30T13:24:47;23.20;;;3.78;;
18082;SDS011;9168;51.194;6.840;2023-01-30T13:27:22;22.50;;;3.65;;
18082;SDS011;9168;51.194;6.840;2023-01-30T13:29:50;17.55;;;3.35;;
18082;SDS011;9168;51.194;6.840;2023-01-30T13:32:26;25.65;;;3.92;;
18082;SDS011;9168;51.194;6.840;2023-01-30T13:35:05;27.70;;;3.17;;
18082;SDS011;9168;51.194;6.840;2023-01-30T13:37:36;22.02;;;4.43;;
18082;SDS011;9168;51.194;6.840;2023-01-30T13:40:03;29.20;;;3.72;;
18082;SDS011;9168;51.194;6.840;2023-01-30T13:42:42;22.83;;;3.67;;
18082;SDS011;9168;51.194;6.840;2023-01-30T13:45:16;27.88;;;3.72;;
18082;SDS011;9168;51.194;6.840;2023-01-30T13:47:47;28.92;;;3.67;;
18082;SDS011;9168;51.194;6.840;2023-01-30T13:50:32;25.48;;;4.00;;
18082;SDS011;9168;51.194;6.840;2023-01-30T13:53:09;25.48;;;3.90;;
18082;SDS011;9168;51.194;6.840;2023-01-30T13:55:45;28.40;;;4.38;;
18082;SDS011;9168;51.194;6.840;2023-01-30T13:58:18;34.40;;;4.13;;
18082;SDS011;9168;51.194;6.840;2023-01-30T14:01:08;22.40;;;3.58;;
18082;SDS011;9168;51.194;6.840;2023-01-30T14:03:36;30.25;;;4.05;;
18082;SDS011;9168;51.194;6.840;2023-01-30T14:06:07;30.30;;;4.25;;
18082;SDS011;9168;51.194;6.840;2023-01-30T14:08:54;34.45;;;3.50;;
18082;SDS011;9168;51.194;6.840;2023-01-30T14:11:24;29.52;;;4.20;;
18082;SDS011;9168;51.194;6.840;2023-01-30T14:13:56;29.52;;;3.33;;
18082;SDS011;9168;51.194;6.840;2023-01-30T14:19:20;29.20;;;3.90;;
18082;SDS011;9168;51.194;6.840;2023-01-30T14:21:59;22.90;;;3.75;;
18082;SDS011;9168;51.194;6.840;2023-01-30T14:24:28;40.17;;;4.43;;
18082;SDS011;9168;51.194;6.840;2023-01-30T14:27:02;27.30;;;4.18;;
18082;SDS011;9168;51.194;6.840;2023-01-30T14:29:53;32.75;;;4.00;;
18082;SDS011;9168;51.194;6.840;2023-01-30T14:32:34;28.98;;;4.10;;
18082;SDS011;9168;51.194;6.840;2023-01-30T14:35:20;24.42;;;4.07;;
18082;SDS011;9168;51.194;6.840;2023-01-30T14:37:51;30.38;;;3.80;;
18082;SDS011;9168;51.194;6.840;2023-01-30T14:40:42;21.15;;;4.22;;
18082;SDS011;9168;51.194;6.840;2023-01-30T14:43:31;40.53;;;5.32;;
18082;SDS011;9168;51.194;6.840;2023-01-30T14:49:26;20.02;;;4.07;;
18082;SDS011;9168;51.194;6.840;2023-01-30T14:51:55;28.67;;;4.13;;
18082;SDS011;9168;51.194;6.840;2023-01-30T14:54:29;35.78;;;4.35;;
18082;SDS011;9168;51.194;6.840;2023-01-30T14:57:00;27.25;;;4.38;;
18082;SDS011;9168;51.194;6.840;2023-01-30T14:59:30;25.38;;;3.63;;
18082;SDS011;9168;51.194;6.840;2023-01-30T15:02:05;32.97;;;4.63;;
18082;SDS011;9168;51.194;6.840;2023-01-30T15:04:46;28.67;;;4.10;;
18082;SDS011;9168;51.194;6.840;2023-01-30T15:07:19;30.88;;;4.25;;
18082;SDS011;9168;51.194;6.840;2023-01-30T15:09:52;31.65;;;5.10;;
18082;SDS011;9168;51.194;6.840;2023-01-30T15:12:27;30.63;;;3.60;;